sensor_id;sensor_type;location;lat;lon;timestamp;temperature;humidity
35680;DHT22;21803;53.586;10.040;2023-08-12T04:00:58;24.60;53.20
35680;DHT22;21803;53.586;10.040;2023-08-12T04:03:24;24.70;53.30
35680;DHT22;21803;53.586;10.040;2023-08-12T04:05:51;24.60;53.20
35680;DHT22;21803;53.586;10.040;2023-08-12T04:08:20;24.70;53.20
35680;DHT22;21803;53.586;10.040;2023-08-12T04:10:47;24.70;53.30
35680;DHT22;21803;53.586;10.040;2023-08-12T04:13:13;24.70;53.20
35680;DHT22;21803;53.586;10.040;2023-08-12T04:15:39;24.60;53.20
35680;DHT22;21803;53.586;10.040;2023-08-12T04:18:05;24.60;53.20
35680;DHT22;21803;53.586;10.040;2023-08-12T04:20:30;24.60;53.80
35680;DHT22;21803;53.586;10.040;2023-08-12T04:22:56;24.70;53.30
35680;DHT22;21803;53.586;10.040;2023-08-12T04:25:22;24.70;53.30
35680;DHT22;21803;53.586;10.040;2023-08-12T04:27:47;24.70;53.30
35680;DHT22;21803;53.586;10.040;2023-08-12T04:30:15;24.70;53.30
35680;DHT22;21803;53.586;10.040;2023-08-12T04:32:41;24.60;53.20
35680;DHT22;21803;53.586;10.040;2023-08-12T04:35:07;24.50;53.20
35680;DHT22;21803;53.586;10.040;2023-08-12T04:37:33;24.70;53.30
35680;DHT22;21803;53.586;10.040;2023-08-12T04:39:59;24.70;53.30
35680;DHT22;21803;53.586;10.040;2023-08-12T04:42:24;24.60;53.30
35680;DHT22;21803;53.586;10.040;2023-08-12T04:44:50;24.50;53.20
35680;DHT22;21803;53.586;10.040;2023-08-12T04:47:15;24.70;53.30
35680;DHT22;21803;53.586;10.040;2023-08-12T04:49:41;24.70;53.30
35680;DHT22;21803;53.586;10.040;2023-08-12T04:52:06;24.70;53.20
35680;DHT22;21803;53.586;10.040;2023-08-12T04:54:32;24.70;53.30
35680;DHT22;21803;53.586;10.040;2023-08-12T04:56:58;24.70;53.30
35680;DHT22;21803;53.586;10.040;2023-08-12T04:59:25;24.70;53.30
35680;DHT22;21803;53.586;10.040;2023-08-12T05:01:50;24.70;53.30
35680;DHT22;21803;53.586;10.040;2023-08-12T05:04:16;24.60;53.20
35680;DHT22;21803;53.586;10.040;2023-08-12T05:06:41;24.70;53.30
35680;DHT22;21803;53.586;10.040;2023-08-12T05:09:07;24.60;53.20
35680;DHT22;21803;53.586;10.040;2023-08-12T05:11:34;24.60;53.20
35680;DHT22;21803;53.586;10.040;2023-08-12T05:13:59;24.70;53.20
35680;DHT22;21803;53.586;10.040;2023-08-12T05:16:25;24.70;53.30
35680;DHT22;21803;53.586;10.040;2023-08-12T05:18:52;24.70;53.20
35680;DHT22;21803;53.586;10.040;2023-08-12T05:21:17;24.70;53.20
35680;DHT22;21803;53.586;10.040;2023-08-12T05:23:43;24.60;53.20
35680;DHT22;21803;53.586;10.040;2023-08-12T05:26:08;24.70;53.30
35680;DHT22;21803;53.586;10.040;2023-08-12T05:28:34;24.70;53.20
35680;DHT22;21803;53.586;10.040;2023-08-12T05:30:59;24.70;53.20
35680;DHT22;21803;53.586;10.040;2023-08-12T05:33:25;24.70;53.20
35680;DHT22;21803;53.586;10.040;2023-08-12T05:35:50;24.70;53.20
35680;DHT22;21803;53.586;10.040;2023-08-12T05:38:16;24.50;53.10
35680;DHT22;21803;53.586;10.040;2023-08-12T05:40:42;24.70;53.20
35680;DHT22;21803;53.586;10.040;2023-08-12T05:43:07;24.70;53.20
35680;DHT22;21803;53.586;10.040;2023-08-12T05:45:33;24.70;53.20
35680;DHT22;21803;53.586;10.040;2023-08-12T05:47:58;24.60;53.10
35680;DHT22;21803;53.586;10.040;2023-08-12T05:50:24;24.60;53.10
35680;DHT22;21803;53.586;10.040;2023-08-12T05:52:49;24.70;53.20
35680;DHT22;21803;53.586;10.040;2023-08-12T05:55:15;24.70;53.20
35680;DHT22;21803;53.586;10.040;2023-08-12T05:57:40;24.70;53.20
35680;DHT22;21803;53.586;10.040;2023-08-12T06:00:06;24.70;53.20
35680;DHT22;21803;53.586;10.040;2023-08-12T06:02:32;24.60;53.10
35680;DHT22;21803;53.586;10.040;2023-08-12T06:04:58;24.70;53.20
35680;DHT22;21803;53.586;10.040;2023-08-12T06:07:23;24.70;53.20
35680;DHT22;21803;53.586;10.040;2023-08-12T06:09:49;24.70;53.20
35680;DHT22;21803;53.586;10.040;2023-08-12T06:12:16;24.70;53.20
35680;DHT22;21803;53.586;10.040;2023-08-12T06:14:41;24.50;53.10
35680;DHT22;21803;53.586;10.040;2023-08-12T06:17:07;24.60;53.20
35680;DHT22;21803;53.586;10.040;2023-08-12T06:19:33;24.50;53.10
35680;DHT22;21803;53.586;10.040;2023-08-12T06:21:58;24.70;53.20
35680;DHT22;21803;53.586;10.040;2023-08-12T06:24:24;24.70;53.20
35680;DHT22;21803;53.586;10.040;2023-08-12T06:26:49;24.70;53.20
35680;DHT22;21803;53.586;10.040;2023-08-12T06:29:15;24.60;53.20
35680;DHT22;21803;53.586;10.040;2023-08-12T06:31:41;24.70;53.30
35680;DHT22;21803;53.586;10.040;2023-08-12T06:34:06;24.70;53.30
35680;DHT22;21803;53.586;10.040;2023-08-12T06:36:32;24.70;53.30
35680;DHT22;21803;53.586;10.040;2023-08-12T06:38:58;24.60;53.30
35680;DHT22;21803;53.586;10.040;2023-08-12T06:41:23;24.60;53.30
35680;DHT22;21803;53.586;10.040;2023-08-12T06:43:49;24.60;53.30
35680;DHT22;21803;53.586;10.040;2023-08-12T06:46:14;24.70;53.30
35680;DHT22;21803;53.586;10.040;2023-08-12T06:48:40;24.60;53.30
35680;DHT22;21803;53.586;10.040;2023-08-12T06:51:05;24.70;53.40
35680;DHT22;21803;53.586;10.040;2023-08-12T06:53:36;24.70;53.40
35680;DHT22;21803;53.586;10.040;2023-08-12T06:56:02;24.60;53.30
35680;DHT22;21803;53.586;10.040;2023-08-12T06:58:28;24.70;53.30
35680;DHT22;21803;53.586;10.040;2023-08-12T07:00:53;24.70;53.40
35680;DHT22;21803;53.586;10.040;2023-08-12T07:03:19;24.70;53.40
35680;DHT22;21803;53.586;10.040;2023-08-12T07:05:45;24.70;53.40
35680;DHT22;21803;53.586;10.040;2023-08-12T07:08:11;24.70;53.50
35680;DHT22;21803;53.586;10.040;2023-08-12T07:10:40;24.70;53.40
35680;DHT22;21803;53.586;10.040;2023-08-12T07:13:05;24.70;53.40
35680;DHT22;21803;53.586;10.040;2023-08-12T07:15:31;24.70;53.40
35680;DHT22;21803;53.586;10.040;2023-08-12T07:17:56;24.70;53.40
35680;DHT22;21803;53.586;10.040;2023-08-12T07:20:25;24.70;53.40
35680;DHT22;21803;53.586;10.040;2023-08-12T07:22:51;24.70;53.50
35680;DHT22;21803;53.586;10.040;2023-08-12T07:25:17;24.70;53.50
35680;DHT22;21803;53.586;10.040;2023-08-12T07:27:42;24.70;53.50
35680;DHT22;21803;53.586;10.040;2023-08-12T07:30:08;24.70;53.60
35680;DHT22;21803;53.586;10.040;2023-08-12T07:32:36;24.70;53.60
35680;DHT22;21803;53.586;10.040;2023-08-12T07:35:02;24.70;54.10
35680;DHT22;21803;53.586;10.040;2023-08-12T07:37:28;24.80;54.10
35680;DHT22;21803;53.586;10.040;2023-08-12T07:39:54;24.90;53.80
35680;DHT22;21803;53.586;10.040;2023-08-12T07:42:19;25.00;53.60
35680;DHT22;21803;53.586;10.040;2023-08-12T07:44:45;25.10;53.40
35680;DHT22;21803;53.586;10.040;2023-08-12T07:47:11;25.20;53.10
35680;DHT22;21803;53.586;10.040;2023-08-12T07:49:37;25.30;52.90
35680;DHT22;21803;53.586;10.040;2023-08-12T07:52:03;25.50;52.80
35680;DHT22;21803;53.586;10.040;2023-08-12T07:54:28;25.60;52.60
35680;DHT22;21803;53.586;10.040;2023-08-12T07:56:54;25.60;52.30
35680;DHT22;21803;53.586;10.040;2023-08-12T07:59:20;25.70;52.20
35680;DHT22;21803;53.586;10.040;2023-08-12T08:01:46;25.80;52.00
35680;DHT22;21803;53.586;10.040;2023-08-12T08:04:11;25.90;51.80
35680;DHT22;21803;53.586;10.040;2023-08-12T08:06:37;26.00;51.70
35680;DHT22;21803;53.586;10.040;2023-08-12T08:09:03;26.10;51.60
35680;DHT22;21803;53.586;10.040;2023-08-12T08:11:29;26.10;51.40
35680;DHT22;21803;53.586;10.040;2023-08-12T08:13:55;26.30;51.40
35680;DHT22;21803;53.586;10.040;2023-08-12T08:16:21;26.30;51.20
35680;DHT22;21803;53.586;10.040;2023-08-12T08:18:47;26.40;51.10
35680;DHT22;21803;53.586;10.040;2023-08-12T08:21:13;26.40;51.00
35680;DHT22;21803;53.586;10.040;2023-08-12T08:23:40;26.40;50.80
35680;DHT22;21803;53.586;10.040;2023-08-12T08:26:06;26.50;50.80
35680;DHT22;21803;53.586;10.040;2023-08-12T08:28:32;26.50;50.70
35680;DHT22;21803;53.586;10.040;2023-08-12T08:30:57;26.50;50.60
35680;DHT22;21803;53.586;10.040;2023-08-12T08:33:24;26.60;50.50
35680;DHT22;21803;53.586;10.040;2023-08-12T08:35:50;26.70;50.50
35680;DHT22;21803;53.586;10.040;2023-08-12T08:38:15;26.80;50.50
35680;DHT22;21803;53.586;10.040;2023-08-12T08:40:42;26.70;50.30
35680;DHT22;21803;53.586;10.040;2023-08-12T08:43:08;26.80;50.30
35680;DHT22;21803;53.586;10.040;2023-08-12T08:45:33;26.80;50.20
35680;DHT22;21803;53.586;10.040;2023-08-12T08:48:00;26.80;50.10
35680;DHT22;21803;53.586;10.040;2023-08-12T08:50:29;26.90;50.10
35680;DHT22;21803;53.586;10.040;2023-08-12T08:52:56;26.90;50.00
35680;DHT22;21803;53.586;10.040;2023-08-12T08:55:22;27.10;50.00
35680;DHT22;21803;53.586;10.040;2023-08-12T08:57:48;27.00;49.90
35680;DHT22;21803;53.586;10.040;2023-08-12T09:00:16;26.90;49.80
35680;DHT22;21803;53.586;10.040;2023-08-12T09:02:43;27.10;49.90
35680;DHT22;21803;53.586;10.040;2023-08-12T09:05:08;27.10;50.80
35680;DHT22;21803;53.586;10.040;2023-08-12T09:07:34;27.20;51.20
35680;DHT22;21803;53.586;10.040;2023-08-12T09:10:01;27.00;51.30
35680;DHT22;21803;53.586;10.040;2023-08-12T09:12:29;27.00;51.50
35680;DHT22;21803;53.586;10.040;2023-08-12T09:14:56;26.80;51.50
35680;DHT22;21803;53.586;10.040;2023-08-12T09:17:22;26.70;51.60
35680;DHT22;21803;53.586;10.040;2023-08-12T09:19:47;26.70;51.90
35680;DHT22;21803;53.586;10.040;2023-08-12T09:22:14;26.60;52.20
35680;DHT22;21803;53.586;10.040;2023-08-12T09:24:39;26.50;52.40
35680;DHT22;21803;53.586;10.040;2023-08-12T09:27:05;26.50;52.40
35680;DHT22;21803;53.586;10.040;2023-08-12T09:29:32;26.40;52.50
35680;DHT22;21803;53.586;10.040;2023-08-12T09:32:10;26.30;52.70
35680;DHT22;21803;53.586;10.040;2023-08-12T09:34:36;26.20;52.70
35680;DHT22;21803;53.586;10.040;2023-08-12T09:37:02;26.20;53.10
35680;DHT22;21803;53.586;10.040;2023-08-12T09:39:29;26.20;53.50
35680;DHT22;21803;53.586;10.040;2023-08-12T09:41:56;26.20;53.70
35680;DHT22;21803;53.586;10.040;2023-08-12T09:44:22;26.10;53.80
35680;DHT22;21803;53.586;10.040;2023-08-12T09:46:48;26.10;54.00
35680;DHT22;21803;53.586;10.040;2023-08-12T09:49:13;26.10;54.00
35680;DHT22;21803;53.586;10.040;2023-08-12T09:51:39;25.90;54.00
35680;DHT22;21803;53.586;10.040;2023-08-12T09:54:09;26.00;54.20
35680;DHT22;21803;53.586;10.040;2023-08-12T09:56:37;25.90;54.20
35680;DHT22;21803;53.586;10.040;2023-08-12T09:59:06;26.00;54.30
35680;DHT22;21803;53.586;10.040;2023-08-12T10:01:35;26.00;54.40
35680;DHT22;21803;53.586;10.040;2023-08-12T10:04:01;25.90;54.50
35680;DHT22;21803;53.586;10.040;2023-08-12T10:06:31;25.80;55.10
35680;DHT22;21803;53.586;10.040;2023-08-12T10:08:58;25.90;54.60
35680;DHT22;21803;53.586;10.040;2023-08-12T10:11:25;25.80;54.60
35680;DHT22;21803;53.586;10.040;2023-08-12T10:13:51;25.80;54.70
35680;DHT22;21803;53.586;10.040;2023-08-12T10:16:17;25.80;54.70
35680;DHT22;21803;53.586;10.040;2023-08-12T10:18:43;25.80;54.70
35680;DHT22;21803;53.586;10.040;2023-08-12T10:21:12;25.70;54.40
35680;DHT22;21803;53.586;10.040;2023-08-12T10:23:41;25.70;54.10
35680;DHT22;21803;53.586;10.040;2023-08-12T10:26:06;25.80;53.90
35680;DHT22;21803;53.586;10.040;2023-08-12T10:28:33;25.70;53.80
35680;DHT22;21803;53.586;10.040;2023-08-12T10:31:05;25.70;53.90
35680;DHT22;21803;53.586;10.040;2023-08-12T10:33:38;25.70;53.90
35680;DHT22;21803;53.586;10.040;2023-08-12T10:36:04;25.70;53.90
35680;DHT22;21803;53.586;10.040;2023-08-12T10:38:32;25.70;54.00
35680;DHT22;21803;53.586;10.040;2023-08-12T10:49:09;25.60;54.60
35680;DHT22;21803;53.586;10.040;2023-08-12T10:51:52;25.70;54.70
35680;DHT22;21803;53.586;10.040;2023-08-12T10:54:25;25.60;54.70
35680;DHT22;21803;53.586;10.040;2023-08-12T11:02:29;25.60;54.80
35680;DHT22;21803;53.586;10.040;2023-08-12T11:05:07;25.60;54.90
35680;DHT22;21803;53.586;10.040;2023-08-12T11:12:48;25.60;54.90
35680;DHT22;21803;53.586;10.040;2023-08-12T11:15:20;25.60;54.90
35680;DHT22;21803;53.586;10.040;2023-08-12T11:17:53;25.60;55.00
35680;DHT22;21803;53.586;10.040;2023-08-12T11:20:20;25.60;54.90
35680;DHT22;21803;53.586;10.040;2023-08-12T11:22:46;25.60;55.00
35680;DHT22;21803;53.586;10.040;2023-08-12T11:25:13;25.60;55.00
35680;DHT22;21803;53.586;10.040;2023-08-12T11:27:43;25.60;55.00
35680;DHT22;21803;53.586;10.040;2023-08-12T11:30:11;25.60;55.00
35680;DHT22;21803;53.586;10.040;2023-08-12T11:32:40;25.60;55.10
35680;DHT22;21803;53.586;10.040;2023-08-12T11:35:07;25.60;55.10
35680;DHT22;21803;53.586;10.040;2023-08-12T11:37:34;25.60;55.10
35680;DHT22;21803;53.586;10.040;2023-08-12T11:40:01;25.60;55.10
35680;DHT22;21803;53.586;10.040;2023-08-12T11:42:28;25.50;55.10
35680;DHT22;21803;53.586;10.040;2023-08-12T11:44:54;25.60;55.20
35680;DHT22;21803;53.586;10.040;2023-08-12T11:47:19;25.50;55.20
35680;DHT22;21803;53.586;10.040;2023-08-12T11:49:45;25.60;55.20
35680;DHT22;21803;53.586;10.040;2023-08-12T11:52:11;25.50;55.10
35680;DHT22;21803;53.586;10.040;2023-08-12T11:54:37;25.50;55.20
35680;DHT22;21803;53.586;10.040;2023-08-12T11:57:03;25.50;55.20
35680;DHT22;21803;53.586;10.040;2023-08-12T11:59:30;25.50;55.30
35680;DHT22;21803;53.586;10.040;2023-08-12T12:01:56;25.50;55.30
35680;DHT22;21803;53.586;10.040;2023-08-12T12:04:22;25.50;55.30
35680;DHT22;21803;53.586;10.040;2023-08-12T12:06:48;25.50;55.40
35680;DHT22;21803;53.586;10.040;2023-08-12T12:09:13;25.50;55.30
35680;DHT22;21803;53.586;10.040;2023-08-12T12:11:41;25.50;55.40
35680;DHT22;21803;53.586;10.040;2023-08-12T12:14:08;25.50;55.40
35680;DHT22;21803;53.586;10.040;2023-08-12T12:16:42;25.50;55.30
35680;DHT22;21803;53.586;10.040;2023-08-12T12:19:17;25.50;55.40
35680;DHT22;21803;53.586;10.040;2023-08-12T12:21:46;25.50;55.50
35680;DHT22;21803;53.586;10.040;2023-08-12T12:24:12;25.50;55.50
35680;DHT22;21803;53.586;10.040;2023-08-12T12:26:38;25.50;55.50
35680;DHT22;21803;53.586;10.040;2023-08-12T12:29:04;25.30;55.40
35680;DHT22;21803;53.586;10.040;2023-08-12T12:31:35;25.40;55.40
35680;DHT22;21803;53.586;10.040;2023-08-12T12:34:04;25.50;55.40
35680;DHT22;21803;53.586;10.040;2023-08-12T12:36:34;25.40;55.40
35680;DHT22;21803;53.586;10.040;2023-08-12T12:39:00;25.40;55.40
35680;DHT22;21803;53.586;10.040;2023-08-12T12:41:25;25.40;55.40
35680;DHT22;21803;53.586;10.040;2023-08-12T12:43:51;25.50;55.50
35680;DHT22;21803;53.586;10.040;2023-08-12T12:46:16;25.50;55.50
35680;DHT22;21803;53.586;10.040;2023-08-12T12:48:43;25.40;55.30
35680;DHT22;21803;53.586;10.040;2023-08-12T12:51:08;25.50;55.40
35680;DHT22;21803;53.586;10.040;2023-08-12T12:53:34;25.50;55.50
35680;DHT22;21803;53.586;10.040;2023-08-12T12:56:00;25.40;55.50
35680;DHT22;21803;53.586;10.040;2023-08-12T12:58:31;25.40;55.60
35680;DHT22;21803;53.586;10.040;2023-08-12T13:00:57;25.40;55.60
35680;DHT22;21803;53.586;10.040;2023-08-12T13:03:23;25.40;55.70
35680;DHT22;21803;53.586;10.040;2023-08-12T13:05:49;25.50;55.80
35680;DHT22;21803;53.586;10.040;2023-08-12T13:08:15;25.50;55.70
35680;DHT22;21803;53.586;10.040;2023-08-12T13:10:40;25.40;55.60
35680;DHT22;21803;53.586;10.040;2023-08-12T13:13:06;25.40;55.70
35680;DHT22;21803;53.586;10.040;2023-08-12T13:15:31;25.40;55.60
35680;DHT22;21803;53.586;10.040;2023-08-12T13:17:57;25.50;55.70
35680;DHT22;21803;53.586;10.040;2023-08-12T13:20:22;25.40;55.60
35680;DHT22;21803;53.586;10.040;2023-08-12T13:22:48;25.50;55.80
35680;DHT22;21803;53.586;10.040;2023-08-12T13:25:14;25.40;56.10
35680;DHT22;21803;53.586;10.040;2023-08-12T13:27:39;25.40;56.70
35680;DHT22;21803;53.586;10.040;2023-08-12T13:30:06;25.40;57.40
35680;DHT22;21803;53.586;10.040;2023-08-12T13:32:31;25.40;58.20
35680;DHT22;21803;53.586;10.040;2023-08-12T13:34:57;25.40;58.40
35680;DHT22;21803;53.586;10.040;2023-08-12T13:37:22;25.40;58.60
35680;DHT22;21803;53.586;10.040;2023-08-12T13:39:48;25.40;58.50
35680;DHT22;21803;53.586;10.040;2023-08-12T13:42:13;25.30;58.40
35680;DHT22;21803;53.586;10.040;2023-08-12T13:44:39;25.40;58.70
35680;DHT22;21803;53.586;10.040;2023-08-12T13:47:04;25.40;58.90
35680;DHT22;21803;53.586;10.040;2023-08-12T13:49:30;25.40;59.10
35680;DHT22;21803;53.586;10.040;2023-08-12T13:51:56;25.40;59.20
35680;DHT22;21803;53.586;10.040;2023-08-12T13:54:21;25.50;59.40
35680;DHT22;21803;53.586;10.040;2023-08-12T13:56:47;25.40;59.60
35680;DHT22;21803;53.586;10.040;2023-08-12T13:59:12;25.40;59.70
35680;DHT22;21803;53.586;10.040;2023-08-12T14:01:38;25.40;59.70
35680;DHT22;21803;53.586;10.040;2023-08-12T14:04:03;25.50;59.90
35680;DHT22;21803;53.586;10.040;2023-08-12T14:06:29;25.40;59.90
35680;DHT22;21803;53.586;10.040;2023-08-12T14:08:55;25.50;60.00
35680;DHT22;21803;53.586;10.040;2023-08-12T14:11:20;25.40;60.00
35680;DHT22;21803;53.586;10.040;2023-08-12T14:13:46;25.40;60.10
35680;DHT22;21803;53.586;10.040;2023-08-12T14:16:11;25.40;61.00
35680;DHT22;21803;53.586;10.040;2023-08-12T14:18:37;25.40;60.30
35680;DHT22;21803;53.586;10.040;2023-08-12T14:21:03;25.40;60.50
35680;DHT22;21803;53.586;10.040;2023-08-12T14:23:28;25.40;60.50
35680;DHT22;21803;53.586;10.040;2023-08-12T14:25:54;25.40;60.60
35680;DHT22;21803;53.586;10.040;2023-08-12T14:28:19;25.40;60.50
35680;DHT22;21803;53.586;10.040;2023-08-12T14:30:45;25.40;60.50
35680;DHT22;21803;53.586;10.040;2023-08-12T14:33:12;25.40;60.60
35680;DHT22;21803;53.586;10.040;2023-08-12T14:35:37;25.40;60.50
35680;DHT22;21803;53.586;10.040;2023-08-12T14:38:03;25.40;60.60
35680;DHT22;21803;53.586;10.040;2023-08-12T14:40:29;25.40;60.30
35680;DHT22;21803;53.586;10.040;2023-08-12T14:42:54;25.30;60.30
35680;DHT22;21803;53.586;10.040;2023-08-12T14:45:20;25.40;60.30
35680;DHT22;21803;53.586;10.040;2023-08-12T14:47:45;25.40;60.30
35680;DHT22;21803;53.586;10.040;2023-08-12T14:50:11;25.40;60.30
35680;DHT22;21803;53.586;10.040;2023-08-12T14:52:36;25.40;60.40
35680;DHT22;21803;53.586;10.040;2023-08-12T14:55:02;25.20;60.30
35680;DHT22;21803;53.586;10.040;2023-08-12T14:57:28;25.40;60.60
35680;DHT22;21803;53.586;10.040;2023-08-12T14:59:53;25.40;60.60
35680;DHT22;21803;53.586;10.040;2023-08-12T15:02:22;25.40;60.70
35680;DHT22;21803;53.586;10.040;2023-08-12T15:04:48;25.30;60.50
35680;DHT22;21803;53.586;10.040;2023-08-12T15:07:14;25.30;60.50
35680;DHT22;21803;53.586;10.040;2023-08-12T15:09:41;25.40;60.70
35680;DHT22;21803;53.586;10.040;2023-08-12T15:12:07;25.40;60.60
35680;DHT22;21803;53.586;10.040;2023-08-12T15:14:32;25.40;60.60
35680;DHT22;21803;53.586;10.040;2023-08-12T15:16:58;25.50;60.80
35680;DHT22;21803;53.586;10.040;2023-08-12T15:19:23;25.30;60.60
35680;DHT22;21803;53.586;10.040;2023-08-12T15:21:49;25.30;60.70
35680;DHT22;21803;53.586;10.040;2023-08-12T15:24:14;25.40;60.70
35680;DHT22;21803;53.586;10.040;2023-08-12T15:26:41;25.40;60.70
35680;DHT22;21803;53.586;10.040;2023-08-12T15:29:06;25.30;60.80
35680;DHT22;21803;53.586;10.040;2023-08-12T15:31:32;25.40;60.90
35680;DHT22;21803;53.586;10.040;2023-08-12T15:33:57;25.30;60.80
35680;DHT22;21803;53.586;10.040;2023-08-12T15:36:23;25.40;61.10
35680;DHT22;21803;53.586;10.040;2023-08-12T15:38:48;25.30;61.20
35680;DHT22;21803;53.586;10.040;2023-08-12T15:41:15;25.30;61.30
35680;DHT22;21803;53.586;10.040;2023-08-12T15:43:41;25.50;62.40
35680;DHT22;21803;53.586;10.040;2023-08-12T15:46:07;25.30;61.60
35680;DHT22;21803;53.586;10.040;2023-08-12T15:48:33;25.30;61.50
35680;DHT22;21803;53.586;10.040;2023-08-12T15:50:59;25.40;61.40
35680;DHT22;21803;53.586;10.040;2023-08-12T15:53:24;25.50;61.20
35680;DHT22;21803;53.586;10.040;2023-08-12T15:55:50;25.30;61.20
35680;DHT22;21803;53.586;10.040;2023-08-12T15:58:15;25.40;61.40
35680;DHT22;21803;53.586;10.040;2023-08-12T16:00:44;25.40;61.20
35680;DHT22;21803;53.586;10.040;2023-08-12T16:03:10;25.40;61.30
35680;DHT22;21803;53.586;10.040;2023-08-12T16:05:36;25.30;61.30
35680;DHT22;21803;53.586;10.040;2023-08-12T16:08:02;25.40;62.10
35680;DHT22;21803;53.586;10.040;2023-08-12T16:10:29;25.40;61.30
35680;DHT22;21803;53.586;10.040;2023-08-12T16:12:54;25.40;61.20
35680;DHT22;21803;53.586;10.040;2023-08-12T16:15:20;25.30;61.00
35680;DHT22;21803;53.586;10.040;2023-08-12T16:17:45;25.40;61.00
35680;DHT22;21803;53.586;10.040;2023-08-12T16:20:11;25.40;60.70
35680;DHT22;21803;53.586;10.040;2023-08-12T16:22:37;25.30;60.50
35680;DHT22;21803;53.586;10.040;2023-08-12T16:25:04;25.40;60.50
35680;DHT22;21803;53.586;10.040;2023-08-12T16:27:30;25.40;60.70
35680;DHT22;21803;53.586;10.040;2023-08-12T16:29:55;25.40;60.50
35680;DHT22;21803;53.586;10.040;2023-08-12T16:32:21;25.40;60.70
35680;DHT22;21803;53.586;10.040;2023-08-12T16:34:46;25.40;60.90
35680;DHT22;21803;53.586;10.040;2023-08-12T16:37:12;25.40;61.20
35680;DHT22;21803;53.586;10.040;2023-08-12T16:39:38;25.30;61.40
35680;DHT22;21803;53.586;10.040;2023-08-12T16:42:03;25.40;61.80
35680;DHT22;21803;53.586;10.040;2023-08-12T16:44:29;25.30;61.70
35680;DHT22;21803;53.586;10.040;2023-08-12T16:46:54;25.20;61.70
35680;DHT22;21803;53.586;10.040;2023-08-12T16:49:20;25.30;61.70
35680;DHT22;21803;53.586;10.040;2023-08-12T16:51:45;25.40;61.70
35680;DHT22;21803;53.586;10.040;2023-08-12T16:54:11;25.40;61.80
35680;DHT22;21803;53.586;10.040;2023-08-12T16:56:37;25.40;61.80
35680;DHT22;21803;53.586;10.040;2023-08-12T16:59:02;25.30;61.70
35680;DHT22;21803;53.586;10.040;2023-08-12T17:01:28;25.40;61.80
35680;DHT22;21803;53.586;10.040;2023-08-12T17:03:54;25.40;61.80
35680;DHT22;21803;53.586;10.040;2023-08-12T17:06:19;25.40;61.80
35680;DHT22;21803;53.586;10.040;2023-08-12T17:08:45;25.40;61.80
35680;DHT22;21803;53.586;10.040;2023-08-12T17:11:10;25.30;61.60
35680;DHT22;21803;53.586;10.040;2023-08-12T17:13:36;25.40;61.60
35680;DHT22;21803;53.586;10.040;2023-08-12T17:16:02;25.30;61.60
35680;DHT22;21803;53.586;10.040;2023-08-12T17:18:28;25.30;61.70
35680;DHT22;21803;53.586;10.040;2023-08-12T17:20:53;25.40;61.80
35680;DHT22;21803;53.586;10.040;2023-08-12T17:23:19;25.30;61.80
35680;DHT22;21803;53.586;10.040;2023-08-12T17:25:44;25.40;61.80
35680;DHT22;21803;53.586;10.040;2023-08-12T17:28:11;25.40;61.80
35680;DHT22;21803;53.586;10.040;2023-08-12T17:30:37;25.40;61.80
35680;DHT22;21803;53.586;10.040;2023-08-12T17:33:02;25.30;61.40
35680;DHT22;21803;53.586;10.040;2023-08-12T17:35:28;25.30;61.30
35680;DHT22;21803;53.586;10.040;2023-08-12T17:37:54;25.30;61.30
35680;DHT22;21803;53.586;10.040;2023-08-12T17:40:20;25.30;61.10
35680;DHT22;21803;53.586;10.040;2023-08-12T17:42:48;25.40;61.20
35680;DHT22;21803;53.586;10.040;2023-08-12T17:45:14;25.30;60.90
35680;DHT22;21803;53.586;10.040;2023-08-12T17:47:40;25.40;60.90
35680;DHT22;21803;53.586;10.040;2023-08-12T17:50:11;25.20;60.60
35680;DHT22;21803;53.586;10.040;2023-08-12T17:52:36;25.30;60.50
35680;DHT22;21803;53.586;10.040;2023-08-12T17:55:02;25.40;60.50
35680;DHT22;21803;53.586;10.040;2023-08-12T17:57:28;25.30;60.40
35680;DHT22;21803;53.586;10.040;2023-08-12T17:59:53;25.30;60.40
35680;DHT22;21803;53.586;10.040;2023-08-12T18:02:19;25.40;60.50
35680;DHT22;21803;53.586;10.040;2023-08-12T18:04:44;25.20;60.30
35680;DHT22;21803;53.586;10.040;2023-08-12T18:07:10;25.30;60.40
35680;DHT22;21803;53.586;10.040;2023-08-12T18:09:36;25.40;60.50
35680;DHT22;21803;53.586;10.040;2023-08-12T18:12:01;25.30;60.40
35680;DHT22;21803;53.586;10.040;2023-08-12T18:14:27;25.30;60.40
35680;DHT22;21803;53.586;10.040;2023-08-12T18:16:52;25.30;60.40
35680;DHT22;21803;53.586;10.040;2023-08-12T18:19:18;25.30;60.50
35680;DHT22;21803;53.586;10.040;2023-08-12T18:21:43;25.30;60.40
35680;DHT22;21803;53.586;10.040;2023-08-12T18:24:09;25.30;60.50
35680;DHT22;21803;53.586;10.040;2023-08-12T18:26:34;25.30;60.40
35680;DHT22;21803;53.586;10.040;2023-08-12T18:29:00;25.30;60.40
35680;DHT22;21803;53.586;10.040;2023-08-12T18:31:25;25.30;60.40
35680;DHT22;21803;53.586;10.040;2023-08-12T18:33:51;25.30;60.30
35680;DHT22;21803;53.586;10.040;2023-08-12T18:36:16;25.30;60.40
35680;DHT22;21803;53.586;10.040;2023-08-12T18:38:42;25.30;60.30
35680;DHT22;21803;53.586;10.040;2023-08-12T18:41:07;25.30;60.20
35680;DHT22;21803;53.586;10.040;2023-08-12T18:43:33;25.30;60.30
35680;DHT22;21803;53.586;10.040;2023-08-12T18:45:58;25.30;60.20
35680;DHT22;21803;53.586;10.040;2023-08-12T18:48:24;25.30;60.00
35680;DHT22;21803;53.586;10.040;2023-08-12T18:50:49;25.10;59.90
35680;DHT22;21803;53.586;10.040;2023-08-12T18:53:15;25.30;59.90
35680;DHT22;21803;53.586;10.040;2023-08-12T18:55:40;25.30;59.70
35680;DHT22;21803;53.586;10.040;2023-08-12T18:58:06;25.20;59.60
35680;DHT22;21803;53.586;10.040;2023-08-12T19:00:32;25.30;59.60
35680;DHT22;21803;53.586;10.040;2023-08-12T19:02:57;25.30;59.60
35680;DHT22;21803;53.586;10.040;2023-08-12T19:05:22;25.30;59.50
35680;DHT22;21803;53.586;10.040;2023-08-12T19:07:48;25.20;59.30
35680;DHT22;21803;53.586;10.040;2023-08-12T19:10:13;25.30;59.20
35680;DHT22;21803;53.586;10.040;2023-08-12T19:12:39;25.30;59.30
35680;DHT22;21803;53.586;10.040;2023-08-12T19:15:05;25.30;59.40
35680;DHT22;21803;53.586;10.040;2023-08-12T19:17:31;25.30;59.80
35680;DHT22;21803;53.586;10.040;2023-08-12T19:19:57;25.20;60.00
35680;DHT22;21803;53.586;10.040;2023-08-12T19:22:22;25.30;60.20
35680;DHT22;21803;53.586;10.040;2023-08-12T19:24:48;25.20;60.20
35680;DHT22;21803;53.586;10.040;2023-08-12T19:27:13;25.20;60.10